sensor_id;sensor_type;location;lat;lon;timestamp;P1;durP1;ratioP1;P2;durP2;ratioP2
1082;SDS011;530;51.448;7.238;2022-10-29T00:00:37;20.63;;;8.07;;
1082;SDS011;530;51.448;7.238;2022-10-29T00:03:03;12.00;;;6.30;;
1082;SDS011;530;51.448;7.238;2022-10-29T00:05:28;13.63;;;6.70;;
1082;SDS011;530;51.448;7.238;2022-10-29T00:07:54;12.57;;;6.73;;
1082;SDS011;530;51.448;7.238;2022-10-29T00:10:20;9.53;;;6.63;;
1082;SDS011;530;51.448;7.238;2022-10-29T00:12:45;13.57;;;6.60;;
1082;SDS011;530;51.448;7.238;2022-10-29T00:15:11;12.30;;;6.43;;
1082;SDS011;530;51.448;7.238;2022-10-29T00:17:37;16.23;;;6.30;;
1082;SDS011;530;51.448;7.238;2022-10-29T00:20:02;12.13;;;6.30;;
1082;SDS011;530;51.448;7.238;2022-10-29T00:22:28;16.10;;;6.40;;
1082;SDS011;530;51.448;7.238;2022-10-29T00:24:54;13.57;;;6.73;;
1082;SDS011;530;51.448;7.238;2022-10-29T00:27:19;9.97;;;5.90;;
1082;SDS011;530;51.448;7.238;2022-10-29T00:29:45;13.30;;;6.23;;
1082;SDS011;530;51.448;7.238;2022-10-29T00:32:11;13.03;;;6.40;;
1082;SDS011;530;51.448;7.238;2022-10-29T00:34:36;12.07;;;7.20;;
1082;SDS011;530;51.448;7.238;2022-10-29T00:37:02;15.07;;;6.47;;
1082;SDS011;530;51.448;7.238;2022-10-29T00:39:28;13.57;;;6.50;;
1082;SDS011;530;51.448;7.238;2022-10-29T00:41:54;11.50;;;6.70;;
1082;SDS011;530;51.448;7.238;2022-10-29T00:46:47;11.37;;;6.50;;
1082;SDS011;530;51.448;7.238;2022-10-29T00:49:22;14.53;;;6.67;;
1082;SDS011;530;51.448;7.238;2022-10-29T00:51:50;12.83;;;6.77;;
1082;SDS011;530;51.448;7.238;2022-10-29T00:54:17;13.47;;;6.40;;
1082;SDS011;530;51.448;7.238;2022-10-29T00:59:14;11.90;;;6.33;;
1082;SDS011;530;51.448;7.238;2022-10-29T01:01:41;10.40;;;6.07;;
1082;SDS011;530;51.448;7.238;2022-10-29T01:04:08;14.07;;;6.60;;
1082;SDS011;530;51.448;7.238;2022-10-29T01:06:35;7.00;;;6.00;;
1082;SDS011;530;51.448;7.238;2022-10-29T01:09:01;11.13;;;6.70;;
1082;SDS011;530;51.448;7.238;2022-10-29T01:14:14;11.77;;;6.43;;
1082;SDS011;530;51.448;7.238;2022-10-29T01:25:35;13.97;;;6.33;;
1082;SDS011;530;51.448;7.238;2022-10-29T01:30:58;11.40;;;6.37;;
1082;SDS011;530;51.448;7.238;2022-10-29T01:36:08;14.00;;;6.37;;
1082;SDS011;530;51.448;7.238;2022-10-29T01:39:00;10.80;;;6.90;;
1082;SDS011;530;51.448;7.238;2022-10-29T01:44:14;14.03;;;7.00;;
1082;SDS011;530;51.448;7.238;2022-10-29T01:47:00;13.70;;;6.67;;
1082;SDS011;530;51.448;7.238;2022-10-29T01:49:33;9.90;;;6.33;;
1082;SDS011;530;51.448;7.238;2022-10-29T01:52:02;12.93;;;7.90;;
1082;SDS011;530;51.448;7.238;2022-10-29T01:54:30;22.60;;;6.83;;
1082;SDS011;530;51.448;7.238;2022-10-29T01:56:57;16.30;;;6.20;;
1082;SDS011;530;51.448;7.238;2022-10-29T01:59:24;10.03;;;5.87;;
1082;SDS011;530;51.448;7.238;2022-10-29T02:04:48;9.37;;;5.90;;
1082;SDS011;530;51.448;7.238;2022-10-29T02:10:15;11.87;;;6.17;;
1082;SDS011;530;51.448;7.238;2022-10-29T02:12:47;8.43;;;5.40;;
1082;SDS011;530;51.448;7.238;2022-10-29T02:15:48;10.53;;;6.53;;
1082;SDS011;530;51.448;7.238;2022-10-29T02:18:12;14.93;;;7.07;;
1082;SDS011;530;51.448;7.238;2022-10-29T02:20:41;8.63;;;6.10;;
1082;SDS011;530;51.448;7.238;2022-10-29T02:23:09;14.23;;;6.60;;
1082;SDS011;530;51.448;7.238;2022-10-29T02:25:35;9.40;;;5.87;;
1082;SDS011;530;51.448;7.238;2022-10-29T02:28:00;17.90;;;7.27;;
1082;SDS011;530;51.448;7.238;2022-10-29T02:30:26;11.87;;;6.33;;
1082;SDS011;530;51.448;7.238;2022-10-29T02:32:52;12.30;;;6.83;;
1082;SDS011;530;51.448;7.238;2022-10-29T02:35:17;12.70;;;7.10;;
1082;SDS011;530;51.448;7.238;2022-10-29T02:37:43;11.47;;;7.00;;
1082;SDS011;530;51.448;7.238;2022-10-29T02:40:09;10.53;;;5.83;;
1082;SDS011;530;51.448;7.238;2022-10-29T02:42:35;8.63;;;6.10;;
1082;SDS011;530;51.448;7.238;2022-10-29T02:45:01;12.13;;;6.97;;
1082;SDS011;530;51.448;7.238;2022-10-29T02:47:26;9.30;;;6.63;;
1082;SDS011;530;51.448;7.238;2022-10-29T02:49:52;11.37;;;7.50;;
1082;SDS011;530;51.448;7.238;2022-10-29T02:52:18;7.73;;;5.90;;
1082;SDS011;530;51.448;7.238;2022-10-29T02:54:43;17.77;;;7.37;;
1082;SDS011;530;51.448;7.238;2022-10-29T02:57:09;14.20;;;6.80;;
1082;SDS011;530;51.448;7.238;2022-10-29T02:59:35;12.67;;;7.17;;
1082;SDS011;530;51.448;7.238;2022-10-29T03:02:00;14.30;;;6.93;;
1082;SDS011;530;51.448;7.238;2022-10-29T03:04:26;15.70;;;7.30;;
1082;SDS011;530;51.448;7.238;2022-10-29T03:06:52;10.30;;;7.17;;
1082;SDS011;530;51.448;7.238;2022-10-29T03:09:17;11.90;;;7.00;;
1082;SDS011;530;51.448;7.238;2022-10-29T03:11:43;12.37;;;6.60;;
1082;SDS011;530;51.448;7.238;2022-10-29T03:14:09;7.90;;;7.10;;
1082;SDS011;530;51.448;7.238;2022-10-29T03:16:34;13.90;;;6.40;;
1082;SDS011;530;51.448;7.238;2022-10-29T03:19:00;13.33;;;7.20;;
1082;SDS011;530;51.448;7.238;2022-10-29T03:21:26;12.57;;;7.10;;
1082;SDS011;530;51.448;7.238;2022-10-29T03:23:51;11.70;;;7.93;;
1082;SDS011;530;51.448;7.238;2022-10-29T03:26:17;13.63;;;7.10;;
1082;SDS011;530;51.448;7.238;2022-10-29T03:28:42;11.97;;;7.40;;
1082;SDS011;530;51.448;7.238;2022-10-29T03:31:08;10.83;;;6.77;;
1082;SDS011;530;51.448;7.238;2022-10-29T03:33:34;15.13;;;7.90;;
1082;SDS011;530;51.448;7.238;2022-10-29T03:36:02;9.67;;;6.47;;
1082;SDS011;530;51.448;7.238;2022-10-29T03:38:32;14.07;;;7.20;;
1082;SDS011;530;51.448;7.238;2022-10-29T03:40:58;10.20;;;6.77;;
1082;SDS011;530;51.448;7.238;2022-10-29T03:43:24;17.83;;;8.17;;
1082;SDS011;530;51.448;7.238;2022-10-29T03:45:50;13.80;;;6.63;;
1082;SDS011;530;51.448;7.238;2022-10-29T03:48:16;16.00;;;7.47;;
1082;SDS011;530;51.448;7.238;2022-10-29T03:50:42;10.60;;;7.77;;
1082;SDS011;530;51.448;7.238;2022-10-29T03:53:08;13.73;;;7.37;;
1082;SDS011;530;51.448;7.238;2022-10-29T03:55:34;10.17;;;7.03;;
1082;SDS011;530;51.448;7.238;2022-10-29T03:58:00;10.00;;;6.50;;
1082;SDS011;530;51.448;7.238;2022-10-29T04:00:25;14.10;;;7.00;;
1082;SDS011;530;51.448;7.238;2022-10-29T04:02:51;11.67;;;6.90;;
1082;SDS011;530;51.448;7.238;2022-10-29T04:05:17;17.17;;;8.10;;
1082;SDS011;530;51.448;7.238;2022-10-29T04:07:42;13.97;;;7.60;;
1082;SDS011;530;51.448;7.238;2022-10-29T04:10:08;14.13;;;6.97;;
1082;SDS011;530;51.448;7.238;2022-10-29T04:12:33;11.10;;;8.33;;
1082;SDS011;530;51.448;7.238;2022-10-29T04:14:59;7.60;;;6.37;;
1082;SDS011;530;51.448;7.238;2022-10-29T04:17:25;9.90;;;7.23;;
1082;SDS011;530;51.448;7.238;2022-10-29T04:19:50;11.57;;;6.83;;
1082;SDS011;530;51.448;7.238;2022-10-29T04:22:16;11.40;;;7.40;;
1082;SDS011;530;51.448;7.238;2022-10-29T04:24:42;14.27;;;8.40;;
1082;SDS011;530;51.448;7.238;2022-10-29T04:27:07;14.90;;;7.33;;
1082;SDS011;530;51.448;7.238;2022-10-29T04:29:33;14.57;;;7.23;;
1082;SDS011;530;51.448;7.238;2022-10-29T04:31:58;19.27;;;7.77;;
1082;SDS011;530;51.448;7.238;2022-10-29T04:34:24;12.63;;;7.00;;
1082;SDS011;530;51.448;7.238;2022-10-29T04:36:50;14.10;;;6.70;;
1082;SDS011;530;51.448;7.238;2022-10-29T04:39:16;11.80;;;7.83;;
1082;SDS011;530;51.448;7.238;2022-10-29T04:41:42;10.80;;;6.77;;
1082;SDS011;530;51.448;7.238;2022-10-29T04:44:07;12.27;;;8.20;;
1082;SDS011;530;51.448;7.238;2022-10-29T04:46:33;11.17;;;7.20;;
1082;SDS011;530;51.448;7.238;2022-10-29T04:48:58;9.67;;;7.00;;
1082;SDS011;530;51.448;7.238;2022-10-29T04:51:25;12.23;;;7.30;;
1082;SDS011;530;51.448;7.238;2022-10-29T04:53:51;15.23;;;7.20;;
1082;SDS011;530;51.448;7.238;2022-10-29T04:56:17;14.17;;;8.47;;
1082;SDS011;530;51.448;7.238;2022-10-29T04:58:43;14.20;;;8.20;;
1082;SDS011;530;51.448;7.238;2022-10-29T05:01:08;11.43;;;7.73;;
1082;SDS011;530;51.448;7.238;2022-10-29T05:03:34;15.30;;;8.20;;
1082;SDS011;530;51.448;7.238;2022-10-29T05:06:04;10.73;;;7.80;;
1082;SDS011;530;51.448;7.238;2022-10-29T05:08:31;15.53;;;8.60;;
1082;SDS011;530;51.448;7.238;2022-10-29T05:10:59;13.30;;;6.73;;
1082;SDS011;530;51.448;7.238;2022-10-29T05:13:26;14.23;;;8.03;;
1082;SDS011;530;51.448;7.238;2022-10-29T05:15:51;12.40;;;7.20;;
1082;SDS011;530;51.448;7.238;2022-10-29T05:18:17;13.17;;;7.50;;
1082;SDS011;530;51.448;7.238;2022-10-29T05:20:43;16.03;;;7.13;;
1082;SDS011;530;51.448;7.238;2022-10-29T05:23:09;8.40;;;6.27;;
1082;SDS011;530;51.448;7.238;2022-10-29T05:25:36;17.63;;;7.77;;
1082;SDS011;530;51.448;7.238;2022-10-29T05:28:12;10.73;;;7.20;;
1082;SDS011;530;51.448;7.238;2022-10-29T05:30:46;14.27;;;7.53;;
1082;SDS011;530;51.448;7.238;2022-10-29T05:33:13;16.90;;;6.90;;
1082;SDS011;530;51.448;7.238;2022-10-29T05:35:41;11.00;;;6.70;;
1082;SDS011;530;51.448;7.238;2022-10-29T05:38:07;9.63;;;6.20;;
1082;SDS011;530;51.448;7.238;2022-10-29T05:40:34;19.70;;;7.80;;
1082;SDS011;530;51.448;7.238;2022-10-29T05:43:00;17.73;;;8.40;;
1082;SDS011;530;51.448;7.238;2022-10-29T05:45:25;12.60;;;7.03;;
1082;SDS011;530;51.448;7.238;2022-10-29T05:47:55;14.87;;;8.10;;
1082;SDS011;530;51.448;7.238;2022-10-29T05:50:21;12.27;;;7.10;;
1082;SDS011;530;51.448;7.238;2022-10-29T05:52:57;11.13;;;7.00;;
1082;SDS011;530;51.448;7.238;2022-10-29T05:55:24;13.87;;;7.40;;
1082;SDS011;530;51.448;7.238;2022-10-29T05:57:54;9.80;;;6.90;;
1082;SDS011;530;51.448;7.238;2022-10-29T06:00:21;15.17;;;6.63;;
1082;SDS011;530;51.448;7.238;2022-10-29T06:02:46;10.87;;;6.80;;
1082;SDS011;530;51.448;7.238;2022-10-29T06:05:12;12.10;;;6.90;;
1082;SDS011;530;51.448;7.238;2022-10-29T06:07:37;10.60;;;7.00;;
1082;SDS011;530;51.448;7.238;2022-10-29T06:10:03;12.10;;;6.90;;
1082;SDS011;530;51.448;7.238;2022-10-29T06:12:30;11.77;;;7.40;;
1082;SDS011;530;51.448;7.238;2022-10-29T06:14:57;14.20;;;7.07;;
1082;SDS011;530;51.448;7.238;2022-10-29T06:17:22;10.53;;;6.77;;
1082;SDS011;530;51.448;7.238;2022-10-29T06:19:48;10.20;;;6.80;;
1082;SDS011;530;51.448;7.238;2022-10-29T06:22:14;10.40;;;6.77;;
1082;SDS011;530;51.448;7.238;2022-10-29T06:24:39;10.20;;;6.60;;
1082;SDS011;530;51.448;7.238;2022-10-29T06:27:05;11.87;;;6.10;;
1082;SDS011;530;51.448;7.238;2022-10-29T06:29:31;14.73;;;6.67;;
1082;SDS011;530;51.448;7.238;2022-10-29T06:31:56;11.43;;;6.63;;
1082;SDS011;530;51.448;7.238;2022-10-29T06:34:22;11.23;;;6.70;;
1082;SDS011;530;51.448;7.238;2022-10-29T06:36:47;11.00;;;6.67;;
1082;SDS011;530;51.448;7.238;2022-10-29T06:39:13;12.13;;;6.77;;
1082;SDS011;530;51.448;7.238;2022-10-29T06:41:38;7.53;;;6.07;;
1082;SDS011;530;51.448;7.238;2022-10-29T06:44:04;15.00;;;6.13;;
1082;SDS011;530;51.448;7.238;2022-10-29T06:46:30;10.67;;;6.43;;
1082;SDS011;530;51.448;7.238;2022-10-29T06:48:58;12.20;;;6.47;;
1082;SDS011;530;51.448;7.238;2022-10-29T06:51:23;12.57;;;7.63;;
1082;SDS011;530;51.448;7.238;2022-10-29T06:53:49;8.67;;;6.50;;
1082;SDS011;530;51.448;7.238;2022-10-29T06:56:15;13.53;;;6.80;;
1082;SDS011;530;51.448;7.238;2022-10-29T06:58:40;11.83;;;6.90;;
1082;SDS011;530;51.448;7.238;2022-10-29T07:01:06;11.90;;;7.40;;
1082;SDS011;530;51.448;7.238;2022-10-29T07:03:31;10.47;;;6.73;;
1082;SDS011;530;51.448;7.238;2022-10-29T07:05:58;11.43;;;6.17;;
1082;SDS011;530;51.448;7.238;2022-10-29T07:08:24;9.50;;;6.60;;
1082;SDS011;530;51.448;7.238;2022-10-29T07:10:50;12.57;;;6.27;;
1082;SDS011;530;51.448;7.238;2022-10-29T07:13:17;11.63;;;6.40;;
1082;SDS011;530;51.448;7.238;2022-10-29T07:15:42;10.77;;;6.57;;
1082;SDS011;530;51.448;7.238;2022-10-29T07:18:09;11.50;;;6.17;;
1082;SDS011;530;51.448;7.238;2022-10-29T07:20:39;12.30;;;6.17;;
1082;SDS011;530;51.448;7.238;2022-10-29T07:23:07;12.70;;;6.13;;
1082;SDS011;530;51.448;7.238;2022-10-29T07:25:33;8.77;;;5.23;;
1082;SDS011;530;51.448;7.238;2022-10-29T07:30:34;12.07;;;6.37;;
1082;SDS011;530;51.448;7.238;2022-10-29T07:33:00;12.00;;;6.60;;
1082;SDS011;530;51.448;7.238;2022-10-29T07:35:26;14.93;;;6.00;;
1082;SDS011;530;51.448;7.238;2022-10-29T07:37:51;10.40;;;5.40;;
1082;SDS011;530;51.448;7.238;2022-10-29T07:40:21;11.27;;;6.73;;
1082;SDS011;530;51.448;7.238;2022-10-29T07:42:50;16.97;;;6.30;;
1082;SDS011;530;51.448;7.238;2022-10-29T07:45:16;14.20;;;6.33;;
1082;SDS011;530;51.448;7.238;2022-10-29T07:47:42;8.23;;;5.17;;
1082;SDS011;530;51.448;7.238;2022-10-29T07:50:07;10.07;;;5.83;;
1082;SDS011;530;51.448;7.238;2022-10-29T07:52:33;10.43;;;5.10;;
1082;SDS011;530;51.448;7.238;2022-10-29T07:54:59;10.80;;;6.13;;
1082;SDS011;530;51.448;7.238;2022-10-29T07:57:26;12.93;;;5.60;;
1082;SDS011;530;51.448;7.238;2022-10-29T07:59:52;9.40;;;5.40;;
1082;SDS011;530;51.448;7.238;2022-10-29T08:02:18;9.03;;;5.57;;
1082;SDS011;530;51.448;7.238;2022-10-29T08:04:44;10.50;;;5.50;;
1082;SDS011;530;51.448;7.238;2022-10-29T08:07:09;10.20;;;5.80;;
1082;SDS011;530;51.448;7.238;2022-10-29T08:09:35;11.03;;;5.17;;
1082;SDS011;530;51.448;7.238;2022-10-29T08:12:01;14.83;;;5.90;;
1082;SDS011;530;51.448;7.238;2022-10-29T08:14:29;10.60;;;6.10;;
1082;SDS011;530;51.448;7.238;2022-10-29T08:16:54;9.00;;;5.30;;
1082;SDS011;530;51.448;7.238;2022-10-29T08:19:20;17.60;;;6.00;;
1082;SDS011;530;51.448;7.238;2022-10-29T08:21:46;8.07;;;4.53;;
1082;SDS011;530;51.448;7.238;2022-10-29T08:24:12;8.47;;;5.13;;
1082;SDS011;530;51.448;7.238;2022-10-29T08:26:38;11.43;;;5.20;;
1082;SDS011;530;51.448;7.238;2022-10-29T08:29:03;15.67;;;5.27;;
1082;SDS011;530;51.448;7.238;2022-10-29T08:31:29;12.27;;;5.17;;
1082;SDS011;530;51.448;7.238;2022-10-29T08:33:55;8.80;;;5.17;;
1082;SDS011;530;51.448;7.238;2022-10-29T08:36:20;7.90;;;5.00;;
1082;SDS011;530;51.448;7.238;2022-10-29T08:38:46;13.43;;;5.67;;
1082;SDS011;530;51.448;7.238;2022-10-29T08:47:14;10.47;;;4.97;;
1082;SDS011;530;51.448;7.238;2022-10-29T08:49:57;9.93;;;5.20;;
1082;SDS011;530;51.448;7.238;2022-10-29T08:52:46;12.10;;;5.20;;
1082;SDS011;530;51.448;7.238;2022-10-29T08:55:16;14.77;;;6.77;;
1082;SDS011;530;51.448;7.238;2022-10-29T08:57:53;10.77;;;5.50;;
1082;SDS011;530;51.448;7.238;2022-10-29T09:00:21;8.30;;;5.87;;
1082;SDS011;530;51.448;7.238;2022-10-29T09:02:52;11.20;;;6.20;;
1082;SDS011;530;51.448;7.238;2022-10-29T09:05:23;12.43;;;4.93;;
1082;SDS011;530;51.448;7.238;2022-10-29T09:19:05;9.87;;;5.50;;
1082;SDS011;530;51.448;7.238;2022-10-29T09:27:21;9.30;;;4.60;;
1082;SDS011;530;51.448;7.238;2022-10-29T09:32:35;8.80;;;4.70;;
1082;SDS011;530;51.448;7.238;2022-10-29T09:35:12;11.30;;;5.57;;
1082;SDS011;530;51.448;7.238;2022-10-29T09:37:41;12.63;;;4.43;;
1082;SDS011;530;51.448;7.238;2022-10-29T09:40:29;11.43;;;4.83;;
1082;SDS011;530;51.448;7.238;2022-10-29T09:48:29;11.17;;;5.23;;
1082;SDS011;530;51.448;7.238;2022-10-29T09:53:46;12.27;;;4.67;;
1082;SDS011;530;51.448;7.238;2022-10-29T09:56:13;11.30;;;4.97;;
1082;SDS011;530;51.448;7.238;2022-10-29T09:58:40;9.47;;;4.47;;
1082;SDS011;530;51.448;7.238;2022-10-29T10:01:09;8.17;;;5.07;;
1082;SDS011;530;51.448;7.238;2022-10-29T10:03:36;11.83;;;4.90;;
1082;SDS011;530;51.448;7.238;2022-10-29T10:06:10;11.73;;;4.60;;
1082;SDS011;530;51.448;7.238;2022-10-29T10:11:33;10.77;;;4.23;;
1082;SDS011;530;51.448;7.238;2022-10-29T10:14:07;8.80;;;4.33;;
1082;SDS011;530;51.448;7.238;2022-10-29T10:16:39;7.50;;;4.20;;
1082;SDS011;530;51.448;7.238;2022-10-29T10:19:22;8.20;;;4.43;;
1082;SDS011;530;51.448;7.238;2022-10-29T10:21:57;7.70;;;4.63;;
1082;SDS011;530;51.448;7.238;2022-10-29T10:24:30;13.17;;;4.40;;
1082;SDS011;530;51.448;7.238;2022-10-29T10:26:58;10.43;;;4.50;;
1082;SDS011;530;51.448;7.238;2022-10-29T10:29:25;8.20;;;4.40;;
1082;SDS011;530;51.448;7.238;2022-10-29T10:34:20;12.80;;;5.00;;
1082;SDS011;530;51.448;7.238;2022-10-29T10:37:01;9.20;;;5.40;;
1082;SDS011;530;51.448;7.238;2022-10-29T10:39:30;10.73;;;4.10;;
1082;SDS011;530;51.448;7.238;2022-10-29T10:42:15;8.63;;;4.43;;
1082;SDS011;530;51.448;7.238;2022-10-29T10:44:47;8.60;;;4.47;;
1082;SDS011;530;51.448;7.238;2022-10-29T10:47:22;10.53;;;4.20;;
1082;SDS011;530;51.448;7.238;2022-10-29T10:49:51;10.53;;;4.73;;
1082;SDS011;530;51.448;7.238;2022-10-29T10:52:18;11.77;;;4.47;;
1082;SDS011;530;51.448;7.238;2022-10-29T10:57:22;12.43;;;4.87;;
1082;SDS011;530;51.448;7.238;2022-10-29T11:05:25;9.03;;;4.90;;
1082;SDS011;530;51.448;7.238;2022-10-29T11:13:51;10.00;;;4.03;;
1082;SDS011;530;51.448;7.238;2022-10-29T11:16:20;11.73;;;4.70;;
1082;SDS011;530;51.448;7.238;2022-10-29T11:19:18;11.17;;;4.33;;
1082;SDS011;530;51.448;7.238;2022-10-29T11:22:15;7.13;;;3.83;;
1082;SDS011;530;51.448;7.238;2022-10-29T11:25:03;7.87;;;4.30;;
1082;SDS011;530;51.448;7.238;2022-10-29T11:27:46;10.90;;;4.70;;
1082;SDS011;530;51.448;7.238;2022-10-29T11:30:32;13.10;;;5.40;;
1082;SDS011;530;51.448;7.238;2022-10-29T11:33:10;8.87;;;4.60;;
1082;SDS011;530;51.448;7.238;2022-10-29T11:35:59;12.20;;;4.27;;
1082;SDS011;530;51.448;7.238;2022-10-29T11:38:38;11.80;;;4.80;;
1082;SDS011;530;51.448;7.238;2022-10-29T11:41:45;8.03;;;4.37;;
1082;SDS011;530;51.448;7.238;2022-10-29T11:44:23;10.00;;;4.57;;
1082;SDS011;530;51.448;7.238;2022-10-29T11:54:36;10.13;;;4.50;;
1082;SDS011;530;51.448;7.238;2022-10-29T12:00:16;10.73;;;4.57;;
1082;SDS011;530;51.448;7.238;2022-10-29T12:03:01;11.13;;;4.70;;
1082;SDS011;530;51.448;7.238;2022-10-29T12:05:45;11.53;;;5.00;;
1082;SDS011;530;51.448;7.238;2022-10-29T12:11:06;12.63;;;5.17;;
1082;SDS011;530;51.448;7.238;2022-10-29T12:13:41;6.67;;;3.90;;
1082;SDS011;530;51.448;7.238;2022-10-29T12:30:53;10.17;;;3.67;;
1082;SDS011;530;51.448;7.238;2022-10-29T12:33:40;7.97;;;3.70;;
1082;SDS011;530;51.448;7.238;2022-10-29T12:38:43;7.77;;;3.70;;
1082;SDS011;530;51.448;7.238;2022-10-29T12:41:16;13.00;;;3.80;;
1082;SDS011;530;51.448;7.238;2022-10-29T12:43:47;10.33;;;4.37;;
1082;SDS011;530;51.448;7.238;2022-10-29T12:46:23;12.40;;;4.30;;
1082;SDS011;530;51.448;7.238;2022-10-29T12:49:04;9.17;;;4.57;;
1082;SDS011;530;51.448;7.238;2022-10-29T12:56:54;7.80;;;4.17;;
1082;SDS011;530;51.448;7.238;2022-10-29T12:59:28;8.33;;;4.60;;
1082;SDS011;530;51.448;7.238;2022-10-29T13:07:33;8.07;;;3.90;;
1082;SDS011;530;51.448;7.238;2022-10-29T13:15:30;9.77;;;4.23;;
1082;SDS011;530;51.448;7.238;2022-10-29T13:18:00;8.70;;;4.00;;
1082;SDS011;530;51.448;7.238;2022-10-29T13:20:37;17.63;;;4.70;;
1082;SDS011;530;51.448;7.238;2022-10-29T13:25:46;8.40;;;4.10;;
1082;SDS011;530;51.448;7.238;2022-10-29T13:30:41;11.53;;;4.77;;
1082;SDS011;530;51.448;7.238;2022-10-29T13:35:55;7.73;;;3.60;;
1082;SDS011;530;51.448;7.238;2022-10-29T13:41:09;8.10;;;4.33;;
1082;SDS011;530;51.448;7.238;2022-10-29T13:43:59;12.00;;;4.70;;
1082;SDS011;530;51.448;7.238;2022-10-29T13:49:29;11.00;;;4.47;;
1082;SDS011;530;51.448;7.238;2022-10-29T13:52:14;8.77;;;4.00;;
1082;SDS011;530;51.448;7.238;2022-10-29T13:57:35;8.13;;;4.40;;
1082;SDS011;530;51.448;7.238;2022-10-29T14:00:06;9.33;;;4.10;;
1082;SDS011;530;51.448;7.238;2022-10-29T14:15:39;12.33;;;4.63;;
1082;SDS011;530;51.448;7.238;2022-10-29T14:18:23;8.20;;;4.33;;
1082;SDS011;530;51.448;7.238;2022-10-29T14:20:53;11.13;;;4.93;;
1082;SDS011;530;51.448;7.238;2022-10-29T14:23:20;8.43;;;3.80;;
1082;SDS011;530;51.448;7.238;2022-10-29T14:25:50;8.50;;;4.20;;
1082;SDS011;530;51.448;7.238;2022-10-29T14:28:28;9.33;;;4.53;;
1082;SDS011;530;51.448;7.238;2022-10-29T14:31:02;8.33;;;4.27;;
1082;SDS011;530;51.448;7.238;2022-10-29T14:33:31;9.20;;;4.10;;
1082;SDS011;530;51.448;7.238;2022-10-29T14:38:52;10.60;;;4.50;;
1082;SDS011;530;51.448;7.238;2022-10-29T14:41:27;8.57;;;3.60;;
1082;SDS011;530;51.448;7.238;2022-10-29T14:46:39;11.90;;;4.90;;
1082;SDS011;530;51.448;7.238;2022-10-29T14:49:18;9.77;;;4.27;;
1082;SDS011;530;51.448;7.238;2022-10-29T14:51:50;12.33;;;4.20;;
1082;SDS011;530;51.448;7.238;2022-10-29T14:54:24;12.60;;;4.17;;
1082;SDS011;530;51.448;7.238;2022-10-29T14:56:56;9.30;;;4.20;;
1082;SDS011;530;51.448;7.238;2022-10-29T14:59:25;10.90;;;4.87;;
1082;SDS011;530;51.448;7.238;2022-10-29T15:01:55;9.17;;;4.20;;
1082;SDS011;530;51.448;7.238;2022-10-29T15:04:32;11.90;;;4.90;;
1082;SDS011;530;51.448;7.238;2022-10-29T15:09:49;12.97;;;5.10;;
1082;SDS011;530;51.448;7.238;2022-10-29T15:12:31;11.60;;;4.57;;
1082;SDS011;530;51.448;7.238;2022-10-29T15:15:21;17.53;;;4.93;;
1082;SDS011;530;51.448;7.238;2022-10-29T15:17:53;6.90;;;4.30;;
1082;SDS011;530;51.448;7.238;2022-10-29T15:20:34;9.50;;;3.77;;
1082;SDS011;530;51.448;7.238;2022-10-29T15:23:03;15.30;;;5.17;;
1082;SDS011;530;51.448;7.238;2022-10-29T15:25:31;6.93;;;3.90;;
1082;SDS011;530;51.448;7.238;2022-10-29T15:28:00;12.67;;;5.00;;
1082;SDS011;530;51.448;7.238;2022-10-29T15:30:34;10.40;;;5.23;;
1082;SDS011;530;51.448;7.238;2022-10-29T15:33:02;10.13;;;5.37;;
1082;SDS011;530;51.448;7.238;2022-10-29T15:35:32;8.90;;;4.77;;
1082;SDS011;530;51.448;7.238;2022-10-29T15:38:00;10.20;;;4.97;;
1082;SDS011;530;51.448;7.238;2022-10-29T15:40:26;9.10;;;4.63;;
1082;SDS011;530;51.448;7.238;2022-10-29T15:42:52;9.10;;;4.47;;
1082;SDS011;530;51.448;7.238;2022-10-29T15:45:19;10.67;;;4.80;;
1082;SDS011;530;51.448;7.238;2022-10-29T15:47:51;7.27;;;4.10;;
1082;SDS011;530;51.448;7.238;2022-10-29T15:50:20;7.23;;;4.17;;
1082;SDS011;530;51.448;7.238;2022-10-29T15:52:52;7.23;;;4.03;;
1082;SDS011;530;51.448;7.238;2022-10-29T15:55:22;13.60;;;4.67;;
1082;SDS011;530;51.448;7.238;2022-10-29T16:00:43;12.70;;;5.87;;
1082;SDS011;530;51.448;7.238;2022-10-29T16:03:14;11.37;;;4.67;;
1082;SDS011;530;51.448;7.238;2022-10-29T16:05:59;16.87;;;4.20;;
1082;SDS011;530;51.448;7.238;2022-10-29T16:08:29;7.97;;;3.90;;
1082;SDS011;530;51.448;7.238;2022-10-29T16:11:06;8.63;;;4.53;;
1082;SDS011;530;51.448;7.238;2022-10-29T16:13:36;9.33;;;4.10;;
1082;SDS011;530;51.448;7.238;2022-10-29T16:16:02;10.13;;;5.23;;
1082;SDS011;530;51.448;7.238;2022-10-29T16:18:28;6.10;;;4.43;;
1082;SDS011;530;51.448;7.238;2022-10-29T16:20:58;10.63;;;4.40;;
1082;SDS011;530;51.448;7.238;2022-10-29T16:23:25;13.27;;;4.53;;
1082;SDS011;530;51.448;7.238;2022-10-29T16:25:51;16.07;;;4.53;;
1082;SDS011;530;51.448;7.238;2022-10-29T16:28:17;11.13;;;5.07;;
1082;SDS011;530;51.448;7.238;2022-10-29T16:30:44;14.50;;;5.33;;
1082;SDS011;530;51.448;7.238;2022-10-29T16:33:16;7.43;;;4.70;;
1082;SDS011;530;51.448;7.238;2022-10-29T16:35:43;10.70;;;4.73;;
1082;SDS011;530;51.448;7.238;2022-10-29T16:38:09;9.37;;;5.00;;
1082;SDS011;530;51.448;7.238;2022-10-29T16:40:35;8.93;;;4.10;;
1082;SDS011;530;51.448;7.238;2022-10-29T16:43:01;10.67;;;4.87;;
1082;SDS011;530;51.448;7.238;2022-10-29T16:45:27;13.33;;;4.87;;
1082;SDS011;530;51.448;7.238;2022-10-29T16:47:54;9.23;;;4.60;;
1082;SDS011;530;51.448;7.238;2022-10-29T16:50:25;8.83;;;5.00;;
1082;SDS011;530;51.448;7.238;2022-10-29T16:52:59;11.20;;;4.77;;
1082;SDS011;530;51.448;7.238;2022-10-29T16:55:26;11.57;;;5.00;;
1082;SDS011;530;51.448;7.238;2022-10-29T16:57:53;10.30;;;5.10;;
1082;SDS011;530;51.448;7.238;2022-10-29T17:00:19;9.20;;;4.90;;
1082;SDS011;530;51.448;7.238;2022-10-29T17:02:45;10.17;;;4.90;;
1082;SDS011;530;51.448;7.238;2022-10-29T17:05:11;9.47;;;5.03;;
1082;SDS011;530;51.448;7.238;2022-10-29T17:07:37;11.13;;;5.17;;
1082;SDS011;530;51.448;7.238;2022-10-29T17:10:04;17.20;;;5.30;;
1082;SDS011;530;51.448;7.238;2022-10-29T17:12:30;8.90;;;4.70;;
1082;SDS011;530;51.448;7.238;2022-10-29T17:14:56;8.03;;;4.80;;
1082;SDS011;530;51.448;7.238;2022-10-29T17:17:22;5.13;;;4.63;;
1082;SDS011;530;51.448;7.238;2022-10-29T17:19:48;8.90;;;4.60;;
1082;SDS011;530;51.448;7.238;2022-10-29T17:22:13;10.80;;;4.97;;
1082;SDS011;530;51.448;7.238;2022-10-29T17:24:43;12.10;;;5.27;;
1082;SDS011;530;51.448;7.238;2022-10-29T17:27:09;11.00;;;5.40;;
1082;SDS011;530;51.448;7.238;2022-10-29T17:29:35;7.50;;;5.10;;
1082;SDS011;530;51.448;7.238;2022-10-29T17:32:01;9.10;;;5.93;;
1082;SDS011;530;51.448;7.238;2022-10-29T17:34:28;10.57;;;5.57;;
1082;SDS011;530;51.448;7.238;2022-10-29T17:36:54;12.80;;;4.90;;
1082;SDS011;530;51.448;7.238;2022-10-29T17:39:19;10.27;;;5.10;;
1082;SDS011;530;51.448;7.238;2022-10-29T17:41:45;9.00;;;4.80;;
1082;SDS011;530;51.448;7.238;2022-10-29T17:44:12;11.20;;;5.40;;
1082;SDS011;530;51.448;7.238;2022-10-29T17:46:37;15.17;;;4.53;;
1082;SDS011;530;51.448;7.238;2022-10-29T17:49:03;7.60;;;4.90;;
1082;SDS011;530;51.448;7.238;2022-10-29T17:51:29;14.77;;;4.97;;
1082;SDS011;530;51.448;7.238;2022-10-29T17:53:54;8.60;;;4.17;;
1082;SDS011;530;51.448;7.238;2022-10-29T17:56:20;9.90;;;4.80;;
1082;SDS011;530;51.448;7.238;2022-10-29T17:58:46;11.50;;;5.00;;
1082;SDS011;530;51.448;7.238;2022-10-29T18:01:12;10.70;;;5.23;;
1082;SDS011;530;51.448;7.238;2022-10-29T18:03:37;12.83;;;5.60;;
1082;SDS011;530;51.448;7.238;2022-10-29T18:06:04;10.40;;;5.10;;
1082;SDS011;530;51.448;7.238;2022-10-29T18:08:33;9.63;;;5.30;;
1082;SDS011;530;51.448;7.238;2022-10-29T18:11:21;16.73;;;5.40;;
1082;SDS011;530;51.448;7.238;2022-10-29T18:13:47;13.50;;;4.07;;
1082;SDS011;530;51.448;7.238;2022-10-29T18:16:18;10.67;;;4.50;;
1082;SDS011;530;51.448;7.238;2022-10-29T18:18:46;11.00;;;5.20;;
1082;SDS011;530;51.448;7.238;2022-10-29T18:21:14;11.50;;;5.20;;
1082;SDS011;530;51.448;7.238;2022-10-29T18:23:41;10.20;;;5.20;;
1082;SDS011;530;51.448;7.238;2022-10-29T18:29:06;7.37;;;4.97;;